createdAt,value
2023-02-12T00:01:00.112Z,25.27
2023-02-12T00:04:02.430Z,25.95
2023-02-12T00:07:04.607Z,26.85
2023-02-12T00:10:07.466Z,27.27
2023-02-12T00:13:11.187Z,28.05
2023-02-12T00:16:19.552Z,26.17
2023-02-12T00:19:21.727Z,25.65
2023-02-12T00:22:24.910Z,27.98
2023-02-12T00:25:27.138Z,26.25
2023-02-12T00:28:29.415Z,27.55
2023-02-12T00:31:32.409Z,25.52
2023-02-12T00:34:34.698Z,26.45
2023-02-12T00:37:36.975Z,24.95
2023-02-12T00:40:39.257Z,28.23
2023-02-12T00:43:41.809Z,26.30
2023-02-12T00:46:44.120Z,29.13
2023-02-12T00:49:46.374Z,28.67
2023-02-12T00:52:48.686Z,28.00
2023-02-12T00:55:51.769Z,29.50
2023-02-12T00:58:53.991Z,29.45
2023-02-12T01:01:56.587Z,26.10
2023-02-12T01:04:59.550Z,28.73
2023-02-12T01:08:02.211Z,28.77
2023-02-12T01:11:06.337Z,26.58
2023-02-12T01:14:08.910Z,29.83
2023-02-12T01:17:11.149Z,28.33
2023-02-12T01:20:17.854Z,28.58
2023-02-12T01:23:20.062Z,29.70
2023-02-12T01:26:23.784Z,28.38
2023-02-12T01:29:25.929Z,28.50
2023-02-12T01:32:28.404Z,29.27
2023-02-12T01:35:30.563Z,27.88
2023-02-12T01:38:32.928Z,27.27
2023-02-12T01:41:39.631Z,25.95
2023-02-12T01:45:10.721Z,29.88
2023-02-12T01:48:15.519Z,29.10
2023-02-12T01:51:22.362Z,29.08
2023-02-12T01:54:26.651Z,25.92
2023-02-12T01:57:32.427Z,30.40
2023-02-12T02:00:34.660Z,27.40
2023-02-12T02:03:39.642Z,28.05
2023-02-12T02:06:54.350Z,26.83
2023-02-12T02:09:57.997Z,30.67
2023-02-12T02:13:23.075Z,29.65
2023-02-12T02:16:28.077Z,26.73
2023-02-12T02:20:04.469Z,28.05
2023-02-12T02:23:29.844Z,29.02
2023-02-12T02:26:47.472Z,28.92
2023-02-12T02:30:04.587Z,27.25
2023-02-12T02:33:40.880Z,27.40
2023-02-12T02:37:03.765Z,24.58
2023-02-12T02:40:14.858Z,30.63
2023-02-12T02:43:23.924Z,30.05
2023-02-12T02:46:26.134Z,29.00
2023-02-12T02:49:39.409Z,30.15
2023-02-12T02:52:45.592Z,28.85
2023-02-12T02:55:52.431Z,29.63
2023-02-12T02:59:01.781Z,30.88
2023-02-12T03:02:14.016Z,29.17
2023-02-12T03:05:37.863Z,29.73
2023-02-12T03:08:46.938Z,28.88
2023-02-12T03:11:51.106Z,30.02
2023-02-12T03:15:05.429Z,31.30
2023-02-12T03:18:12.978Z,28.83
2023-02-12T03:21:19.621Z,30.88
2023-02-12T03:24:58.884Z,28.58
2023-02-12T03:28:15.297Z,29.30
2023-02-12T03:32:04.930Z,26.98
2023-02-12T03:35:24.734Z,27.98
2023-02-12T03:38:26.980Z,29.42
2023-02-12T03:41:41.959Z,31.20
2023-02-12T03:44:56.475Z,30.27
2023-02-12T03:48:23.386Z,30.65
2023-02-12T03:51:31.770Z,29.23
2023-02-12T03:54:34.046Z,31.27
2023-02-12T03:57:44.521Z,31.55
2023-02-12T04:00:46.872Z,29.05
2023-02-12T04:03:49.145Z,29.85
2023-02-12T04:06:52.899Z,30.00
2023-02-12T04:09:55.112Z,29.25
2023-02-12T04:13:12.280Z,28.27
2023-02-12T04:16:33.726Z,28.65
2023-02-12T04:19:43.878Z,29.75
2023-02-12T04:23:11.809Z,31.45
2023-02-12T04:26:36.198Z,29.27
2023-02-12T04:29:56.300Z,30.00
2023-02-12T04:33:04.478Z,29.98
2023-02-12T04:36:17.113Z,29.35
2023-02-12T04:39:23.474Z,30.60
2023-02-12T04:42:26.012Z,32.17
2023-02-12T04:45:30.807Z,31.70
2023-02-12T04:48:34.729Z,31.48
2023-02-12T04:51:36.951Z,31.27
2023-02-12T04:54:39.310Z,29.25
2023-02-12T04:57:41.571Z,30.83
2023-02-12T05:00:43.775Z,32.10
2023-02-12T05:03:45.926Z,30.00
2023-02-12T05:06:48.104Z,28.25
2023-02-12T05:09:50.261Z,30.15
2023-02-12T05:12:53.842Z,31.65
2023-02-12T05:15:56.274Z,31.58
2023-02-12T05:18:58.580Z,31.17
2023-02-12T05:22:00.816Z,30.92
2023-02-12T05:25:03.157Z,31.50
2023-02-12T05:28:05.327Z,30.55
2023-02-12T05:31:09.180Z,31.50
2023-02-12T05:34:12.529Z,31.35
2023-02-12T05:37:14.862Z,29.05
2023-02-12T05:40:17.457Z,30.97
2023-02-12T05:43:19.592Z,31.52
2023-02-12T05:46:22.538Z,32.25
2023-02-12T05:49:24.803Z,33.67
2023-02-12T05:52:27.033Z,33.55
2023-02-12T05:55:29.368Z,32.10
2023-02-12T05:58:31.508Z,31.98
2023-02-12T06:01:36.554Z,33.05
2023-02-12T06:04:38.693Z,30.35
2023-02-12T06:07:40.788Z,32.55
2023-02-12T06:10:42.978Z,32.25
2023-02-12T06:13:45.631Z,33.17
2023-02-12T06:16:49.744Z,31.05
2023-02-12T06:19:51.904Z,34.38
2023-02-12T06:22:54.063Z,32.97
2023-02-12T06:25:57.577Z,33.78
2023-02-12T06:29:01.134Z,33.67
2023-02-12T06:32:03.584Z,30.75
2023-02-12T06:35:06.318Z,28.45
2023-02-12T06:38:09.407Z,32.00
2023-02-12T06:41:12.228Z,34.35
2023-02-12T06:44:14.743Z,29.23
2023-02-12T06:47:16.931Z,33.42
2023-02-12T06:50:19.487Z,31.60
2023-02-12T06:53:22.035Z,29.45
2023-02-12T06:56:25.493Z,31.73
2023-02-12T06:59:27.619Z,29.38
2023-02-12T07:02:29.798Z,32.70
2023-02-12T07:05:32.945Z,32.03
2023-02-12T07:08:35.182Z,33.10
2023-02-12T07:11:38.598Z,33.47
2023-02-12T07:14:41.112Z,32.08
2023-02-12T07:17:43.263Z,33.10
2023-02-12T07:20:45.452Z,32.05
2023-02-12T07:23:51.382Z,32.33
2023-02-12T07:26:53.801Z,33.00
2023-02-12T07:29:55.932Z,32.90
2023-02-12T07:32:57.986Z,33.63
2023-02-12T07:36:01.320Z,32.63
2023-02-12T07:39:04.524Z,36.60
2023-02-12T07:42:08.707Z,33.60
2023-02-12T07:45:11.075Z,35.42
2023-02-12T07:48:13.349Z,34.17
2023-02-12T07:51:19.487Z,34.20
2023-02-12T07:54:21.735Z,34.08
2023-02-12T07:57:23.833Z,35.58
2023-02-12T08:00:25.959Z,32.78
2023-02-12T08:03:29.396Z,35.47
2023-02-12T08:06:34.162Z,33.22
2023-02-12T08:09:36.412Z,33.47
2023-02-12T08:12:38.581Z,32.40
2023-02-12T08:15:40.812Z,33.28
2023-02-12T08:18:43.835Z,34.22
2023-02-12T08:21:47.467Z,33.90
2023-02-12T08:24:49.596Z,34.25
2023-02-12T08:27:51.726Z,34.95
2023-02-12T08:30:53.992Z,32.25
2023-02-12T08:33:57.054Z,34.97
2023-02-12T08:37:00.398Z,33.63
2023-02-12T08:40:02.513Z,33.70
2023-02-12T08:43:04.674Z,32.17
2023-02-12T08:46:16.207Z,34.47
2023-02-12T08:49:21.151Z,32.15
2023-02-12T08:52:23.414Z,35.13
2023-02-12T08:55:25.629Z,35.58
2023-02-12T08:58:27.887Z,33.88
2023-02-12T09:01:33.492Z,35.45
2023-02-12T09:04:36.086Z,34.10
2023-02-12T09:07:38.181Z,35.60
2023-02-12T09:10:42.108Z,34.83
2023-02-12T09:13:46.046Z,34.22
2023-02-12T09:16:48.242Z,35.90
2023-02-12T09:19:50.396Z,36.30
2023-02-12T09:22:54.163Z,36.20
2023-02-12T09:25:56.649Z,35.33
2023-02-12T09:28:59.264Z,36.22
2023-02-12T09:32:04.908Z,35.92
2023-02-12T09:35:07.354Z,33.05
2023-02-12T09:38:09.617Z,36.22
2023-02-12T09:41:42.733Z,34.50
2023-02-12T09:45:12.745Z,33.83
2023-02-12T09:48:47.215Z,33.30
2023-02-12T09:51:54.050Z,34.63
2023-02-12T09:54:57.055Z,34.40
2023-02-12T09:58:02.415Z,32.78
2023-02-12T10:01:13.744Z,33.50
2023-02-12T10:04:16.051Z,31.98
2023-02-12T10:07:43.147Z,33.33
2023-02-12T10:11:22.726Z,34.13
2023-02-12T10:14:48.106Z,34.40
2023-02-12T10:18:18.037Z,34.42
2023-02-12T10:21:42.030Z,32.05
2023-02-12T10:25:18.044Z,31.42
2023-02-12T10:28:35.938Z,31.23
2023-02-12T10:31:43.067Z,30.27
2023-02-12T10:34:46.017Z,31.75
2023-02-12T10:37:57.152Z,34.50
2023-02-12T10:41:02.117Z,29.63
2023-02-12T10:44:04.348Z,32.58
2023-02-12T10:47:08.710Z,31.13
2023-02-12T10:50:48.335Z,33.40
2023-02-12T10:53:50.438Z,29.58
2023-02-12T10:56:52.636Z,30.83
2023-02-12T11:00:13.838Z,30.88
2023-02-12T11:03:24.251Z,31.77
2023-02-12T11:06:30.155Z,31.83
2023-02-12T11:09:36.766Z,31.88
2023-02-12T11:12:48.391Z,31.45
2023-02-12T11:15:51.354Z,30.42
2023-02-12T11:19:06.381Z,29.10
2023-02-12T11:22:19.049Z,32.42
2023-02-12T11:25:22.252Z,29.25
2023-02-12T11:28:24.671Z,32.10
2023-02-12T11:31:35.390Z,30.83
2023-02-12T11:34:38.220Z,31.67
2023-02-12T11:37:43.400Z,30.73
2023-02-12T11:40:47.687Z,30.33
2023-02-12T11:43:51.959Z,29.73
2023-02-12T11:46:58.875Z,29.35
2023-02-12T11:50:25.908Z,31.17
2023-02-12T11:53:33.353Z,27.63
2023-02-12T11:56:44.920Z,30.13
2023-02-12T11:59:48.406Z,30.92
2023-02-12T12:03:16.895Z,29.52
2023-02-12T12:06:24.634Z,27.10
2023-02-12T12:09:30.429Z,30.38
2023-02-12T12:12:53.989Z,30.73
2023-02-12T12:16:39.652Z,29.83
2023-02-12T12:19:53.123Z,27.73
2023-02-12T12:23:01.045Z,29.13
2023-02-12T12:26:13.202Z,28.70
2023-02-12T12:29:22.380Z,30.73
2023-02-12T12:32:26.777Z,30.45
2023-02-12T12:35:45.743Z,30.27
2023-02-12T12:39:00.103Z,30.00
2023-02-12T12:42:40.312Z,28.98
2023-02-12T12:46:01.385Z,28.40
2023-02-12T12:49:30.574Z,29.27
2023-02-12T12:52:44.519Z,27.85
2023-02-12T12:56:00.594Z,25.85
2023-02-12T12:59:22.096Z,26.65
2023-02-12T13:02:34.462Z,27.95
2023-02-12T13:06:07.626Z,26.70
2023-02-12T13:09:31.882Z,26.08
2023-02-12T13:12:53.144Z,25.63
2023-02-12T13:16:16.487Z,24.85
2023-02-12T13:19:37.161Z,27.90
2023-02-12T13:23:01.645Z,25.33
2023-02-12T13:26:06.659Z,24.45
2023-02-12T13:29:20.519Z,26.92
2023-02-12T13:32:34.869Z,27.45
2023-02-12T13:35:41.710Z,25.67
2023-02-12T13:39:07.120Z,25.98
2023-02-12T13:42:15.305Z,25.77
2023-02-12T13:45:35.282Z,27.90
2023-02-12T13:48:56.165Z,27.77
2023-02-12T13:52:10.537Z,28.30
2023-02-12T13:55:28.599Z,26.98
2023-02-12T13:58:35.173Z,27.35
2023-02-12T14:01:43.727Z,27.60
2023-02-12T14:04:55.514Z,27.80
2023-02-12T14:08:05.756Z,28.25
2023-02-12T14:14:26.215Z,27.27
2023-02-12T14:17:31.630Z,27.08
2023-02-12T14:20:36.409Z,27.65
2023-02-12T14:23:42.208Z,29.50
2023-02-12T14:26:44.638Z,27.63
2023-02-12T14:30:11.913Z,23.70
2023-02-12T14:33:26.620Z,21.05
2023-02-12T14:36:32.162Z,18.63
2023-02-12T14:39:34.470Z,17.30
2023-02-12T14:42:37.161Z,22.90
2023-02-12T14:45:39.302Z,22.67
2023-02-12T14:48:59.333Z,21.52
2023-02-12T14:55:53.818Z,20.42
2023-02-12T14:58:59.265Z,20.20
2023-02-12T15:02:03.867Z,18.98
2023-02-12T15:05:14.274Z,18.42
2023-02-12T15:08:35.105Z,19.98
2023-02-12T15:11:45.246Z,20.77
2023-02-12T15:15:02.689Z,21.85
2023-02-12T15:18:43.159Z,22.20
2023-02-12T15:21:46.387Z,22.23
2023-02-12T15:24:48.863Z,22.63
2023-02-12T15:27:55.535Z,22.23
2023-02-12T15:30:57.987Z,22.70
2023-02-12T15:34:03.691Z,22.75
2023-02-12T15:37:07.632Z,21.95
2023-02-12T15:40:15.946Z,22.98
2023-02-12T15:43:18.981Z,21.63
2023-02-12T15:46:21.284Z,22.27
2023-02-12T15:49:29.357Z,21.50
2023-02-12T15:52:36.336Z,22.15
2023-02-12T15:55:42.559Z,21.67
2023-02-12T15:58:49.156Z,23.65
2023-02-12T16:02:03.616Z,24.10
2023-02-12T16:05:06.777Z,22.95
2023-02-12T16:08:14.941Z,21.10
2023-02-12T16:11:22.289Z,23.02
2023-02-12T16:14:36.868Z,21.98
2023-02-12T16:17:47.240Z,21.83
2023-02-12T16:20:50.192Z,21.15
2023-02-12T16:23:52.404Z,22.35
2023-02-12T16:26:55.840Z,22.17
2023-02-12T16:30:08.603Z,21.63
2023-02-12T16:33:45.478Z,21.23
2023-02-12T16:36:47.638Z,19.85
2023-02-12T16:40:00.922Z,19.73
2023-02-12T16:43:21.828Z,19.42
2023-02-12T16:46:24.093Z,19.90
2023-02-12T16:49:27.273Z,20.48
2023-02-12T16:52:41.131Z,19.23
2023-02-12T16:55:43.347Z,18.50
2023-02-12T16:58:48.607Z,19.25
2023-02-12T17:02:07.169Z,18.00
2023-02-12T17:05:10.461Z,19.25
2023-02-12T17:08:18.834Z,18.25
2023-02-12T17:11:23.313Z,20.38
2023-02-12T17:14:25.523Z,20.08
2023-02-12T17:17:27.829Z,19.35
2023-02-12T17:20:30.181Z,19.08
2023-02-12T17:23:33.393Z,18.65
2023-02-12T17:26:35.672Z,18.13
2023-02-12T17:29:38.044Z,18.20
2023-02-12T17:32:40.168Z,18.13
2023-02-12T17:35:42.638Z,18.92
2023-02-12T17:38:44.827Z,19.58
2023-02-12T17:41:47.231Z,17.20
2023-02-12T17:44:49.796Z,17.75
2023-02-12T17:47:52.016Z,18.67
2023-02-12T17:50:57.065Z,18.80
2023-02-12T17:53:59.452Z,19.00
2023-02-12T17:57:01.605Z,19.15
2023-02-12T18:00:06.363Z,20.02
2023-02-12T18:03:12.712Z,18.77
2023-02-12T18:06:21.158Z,17.98
2023-02-12T18:09:23.314Z,18.42
2023-02-12T18:12:25.436Z,18.95
2023-02-12T18:15:27.644Z,17.63
2023-02-12T18:18:29.843Z,18.35
2023-02-12T18:21:34.072Z,18.77
2023-02-12T18:24:36.915Z,18.10
2023-02-12T18:27:39.649Z,16.67
2023-02-12T18:30:43.383Z,18.17
2023-02-12T18:33:45.725Z,16.23
2023-02-12T18:36:48.920Z,17.02
2023-02-12T18:39:51.209Z,16.77
2023-02-12T18:42:53.514Z,15.95
2023-02-12T18:45:55.804Z,18.02
2023-02-12T18:48:58.783Z,17.70
2023-02-12T18:52:02.203Z,17.80
2023-02-12T18:55:06.515Z,17.45
2023-02-12T18:58:08.850Z,17.27
2023-02-12T19:01:19.977Z,17.52
2023-02-12T19:04:24.219Z,17.67
2023-02-12T19:07:27.518Z,16.45
2023-02-12T19:10:29.850Z,17.25
2023-02-12T19:13:32.063Z,16.92
2023-02-12T19:16:34.424Z,16.98
2023-02-12T19:19:36.878Z,16.45
2023-02-12T19:22:39.941Z,17.33
2023-02-12T19:25:45.378Z,15.68
2023-02-12T19:28:47.702Z,14.93
2023-02-12T19:31:50.081Z,17.63
2023-02-12T19:34:52.313Z,15.90
2023-02-12T19:37:54.538Z,17.17
2023-02-12T19:41:08.314Z,16.13
2023-02-12T19:44:14.556Z,17.67
2023-02-12T19:47:16.758Z,17.05
2023-02-12T19:50:19.057Z,16.52
2023-02-12T19:53:21.292Z,17.15
2023-02-12T19:56:23.456Z,17.10
2023-02-12T19:59:27.240Z,17.75
2023-02-12T20:02:29.500Z,17.65
2023-02-12T20:05:31.628Z,15.70
2023-02-12T20:08:33.803Z,16.77
2023-02-12T20:11:40.270Z,15.60
2023-02-12T20:14:42.635Z,17.20
2023-02-12T20:17:44.870Z,17.23
2023-02-12T20:20:47.102Z,16.02
2023-02-12T20:23:49.582Z,16.50
2023-02-12T20:26:52.954Z,17.88
2023-02-12T20:29:55.275Z,15.23
2023-02-12T20:32:57.516Z,16.88
2023-02-12T20:35:59.751Z,15.15
2023-02-12T20:39:02.073Z,16.55
2023-02-12T20:42:04.444Z,16.15
2023-02-12T20:45:06.863Z,15.88
2023-02-12T20:48:09.003Z,18.20
2023-02-12T20:51:14.673Z,16.95
2023-02-12T20:54:16.839Z,17.05
2023-02-12T20:57:18.960Z,16.65
2023-02-12T21:00:21.390Z,16.77
2023-02-12T21:03:23.493Z,16.73
2023-02-12T21:06:25.785Z,16.83
2023-02-12T21:09:28.180Z,16.77
2023-02-12T21:12:30.392Z,17.08
2023-02-12T21:15:32.699Z,16.55
2023-02-12T21:18:34.901Z,16.85
2023-02-12T21:21:39.320Z,17.75
2023-02-12T21:24:41.518Z,20.55
2023-02-12T21:27:43.727Z,24.80
2023-02-12T21:30:46.452Z,27.75
2023-02-12T21:33:50.352Z,28.30
2023-02-12T21:36:56.984Z,28.75
2023-02-12T21:39:59.233Z,26.80
2023-02-12T21:43:02.112Z,29.20
2023-02-12T21:46:05.287Z,27.75
2023-02-12T21:49:07.990Z,26.15
2023-02-12T21:52:11.566Z,28.58
2023-02-12T21:55:13.764Z,25.40
2023-02-12T21:58:16.023Z,28.25
2023-02-12T22:01:24.094Z,25.20
2023-02-12T22:04:26.637Z,26.33
2023-02-12T22:07:28.781Z,25.92
2023-02-12T22:10:31.201Z,26.13
2023-02-12T22:13:34.076Z,25.83
2023-02-12T22:16:36.905Z,26.35
2023-02-12T22:19:39.514Z,26.27
2023-02-12T22:22:41.663Z,25.08
2023-02-12T22:25:43.859Z,27.20
2023-02-12T22:28:48.375Z,24.88
2023-02-12T22:31:50.671Z,23.15
2023-02-12T22:34:53.489Z,24.77
2023-02-12T22:37:55.629Z,22.52
2023-02-12T22:40:58.100Z,24.73
2023-02-12T22:44:02.286Z,23.55
2023-02-12T22:47:04.704Z,24.35
2023-02-12T22:50:07.559Z,25.75
2023-02-12T22:53:09.723Z,25.17
2023-02-12T22:56:12.237Z,24.38
2023-02-12T22:59:14.508Z,24.30
2023-02-12T23:02:16.781Z,25.10
2023-02-12T23:05:18.958Z,24.88
2023-02-12T23:08:21.095Z,25.40
2023-02-12T23:11:26.574Z,24.05
2023-02-12T23:14:28.733Z,22.42
2023-02-12T23:17:30.892Z,23.40
2023-02-12T23:20:33.141Z,23.60
2023-02-12T23:23:35.362Z,23.35
2023-02-12T23:26:37.558Z,23.02
2023-02-12T23:29:40.466Z,23.45
2023-02-12T23:32:42.766Z,21.92
2023-02-12T23:35:45.976Z,22.75
2023-02-12T23:38:48.274Z,21.10
2023-02-12T23:41:50.391Z,21.90
2023-02-12T23:44:52.541Z,22.25
2023-02-12T23:47:55.136Z,21.80
2023-02-12T23:50:57.852Z,21.75
2023-02-12T23:54:01.901Z,19.98
2023-02-12T23:57:04.199Z,21.70
